Time;durP1;ratioP1;P1;durP2;ratioP2;P2;SDS_P1;SDS_P2;PMS_P1;PMS_P2;Temp;Humidity;BMP_temperature;BMP_pressure;BME280_temperature;BME280_humidity;BME280_pressure;Samples;Min_cycle;Max_cycle;Signal;HPM_P1;HPM_P2
2023/01/02 00:00:12;;;;;;;8.38;3.25;;;;;;;-1.83;72.53;101469.13;5049216;28;20165;-69
2023/01/02 00:02:39;;;;;;;6.93;3.80;;;;;;;-1.82;72.22;101465.78;5048303;28;20513;-69
2023/01/02 00:05:07;;;;;;;7.93;4.22;;;;;;;-1.81;72.49;101467.53;5050553;28;20041;-69
2023/01/02 00:07:33;;;;;;;9.70;4.18;;;;;;;-1.79;72.12;101473.59;5050957;28;20087;-69
2023/01/02 00:10:00;;;;;;;9.48;4.35;;;;;;;-1.79;72.58;101471.03;5050905;28;20045;-69
2023/01/02 00:12:27;;;;;;;5.95;3.33;;;;;;;-1.80;72.30;101469.25;5051441;28;20052;-69
2023/01/02 00:14:55;;;;;;;8.93;3.85;;;;;;;-1.77;71.96;101476.19;5049341;28;20599;-69
2023/01/02 00:17:22;;;;;;;7.07;3.60;;;;;;;-1.77;72.55;101466.81;5050739;28;20045;-69
2023/01/02 00:19:49;;;;;;;6.72;3.65;;;;;;;-1.77;72.10;101464.25;5051109;28;20044;-69
2023/01/02 00:22:16;;;;;;;6.82;3.35;;;;;;;-1.76;72.21;101462.59;5050928;28;20047;-69
2023/01/02 00:24:43;;;;;;;6.05;3.75;;;;;;;-1.76;71.77;101463.47;5051398;28;20422;-69
2023/01/02 00:27:10;;;;;;;7.85;3.15;;;;;;;-1.75;72.42;101470.34;5050677;28;20067;-69
2023/01/02 00:29:36;;;;;;;7.70;3.38;;;;;;;-1.74;72.32;101468.66;5049243;28;20045;-69
2023/01/02 00:32:05;;;;;;;8.45;4.43;;;;;;;-1.74;72.28;101464.38;5050482;28;20052;-69
2023/01/02 00:34:32;;;;;;;14.30;3.83;;;;;;;-1.74;72.34;101472.06;5050988;28;20059;-69
2023/01/02 00:36:59;;;;;;;11.73;3.97;;;;;;;-1.73;72.30;101466.16;5050868;28;20099;-68
2023/01/02 00:39:27;;;;;;;7.40;3.55;;;;;;;-1.73;72.21;101466.16;5050414;28;20427;-69
2023/01/02 00:41:54;;;;;;;9.48;3.45;;;;;;;-1.82;72.22;101450.41;5050572;28;20045;-68
2023/01/02 00:44:21;;;;;;;9.35;3.55;;;;;;;-1.72;72.51;101462.78;5049808;28;20041;-69
2023/01/02 00:46:48;;;;;;;7.35;3.47;;;;;;;-1.70;72.52;101461.16;5050053;28;20049;-69
2023/01/02 00:49:16;;;;;;;9.07;3.65;;;;;;;-1.70;72.15;101462.84;5049133;28;20048;-69
2023/01/02 00:51:43;;;;;;;5.97;3.05;;;;;;;-1.70;72.28;101466.28;5050273;28;20415;-69
2023/01/02 00:54:10;;;;;;;9.63;3.88;;;;;;;-1.69;72.15;101465.47;5050000;28;20128;-68
2023/01/02 00:56:37;;;;;;;7.68;3.53;;;;;;;-1.67;72.34;101475.78;5048695;28;20044;-69
2023/01/02 00:59:03;;;;;;;9.23;3.47;;;;;;;-1.69;72.24;101469.72;5049585;28;20041;-69
2023/01/02 01:01:30;;;;;;;5.97;3.38;;;;;;;-1.67;72.58;101465.56;5049948;28;20136;-69
2023/01/02 01:03:57;;;;;;;6.35;3.63;;;;;;;-1.76;72.79;101454.91;5050055;28;20041;-69
2023/01/02 01:06:25;;;;;;;7.40;2.95;;;;;;;-1.65;72.84;101469.94;5049582;28;20036;-69
2023/01/02 01:08:52;;;;;;;6.00;3.13;;;;;;;-1.63;72.25;101472.53;5049606;28;20047;-69
2023/01/02 01:11:19;;;;;;;8.43;3.30;;;;;;;-1.62;72.31;101470.06;5050194;28;20625;-69
2023/01/02 01:13:46;;;;;;;8.70;3.55;;;;;;;-1.61;72.32;101484.59;5049876;28;20051;-69
2023/01/02 01:16:15;;;;;;;8.30;2.78;;;;;;;-1.62;72.95;101477.75;5049636;28;20056;-69
2023/01/02 01:18:43;;;;;;;7.72;3.20;;;;;;;-1.59;72.52;101480.44;5050383;28;20067;-69
2023/01/02 01:21:11;;;;;;;7.60;3.33;;;;;;;-1.58;72.72;101492.41;5049416;28;20406;-69
2023/01/02 01:23:40;;;;;;;6.82;3.22;;;;;;;-1.56;72.75;101492.50;5050332;28;20070;-69
2023/01/02 01:26:10;;;;;;;7.47;3.05;;;;;;;-1.54;73.21;101479.72;5049742;28;20124;-69
2023/01/02 01:28:37;;;;;;;7.45;4.05;;;;;;;-1.53;72.73;101479.81;5049721;28;20429;-69
2023/01/02 01:31:05;;;;;;;6.68;3.38;;;;;;;-1.52;73.20;101481.56;5048887;28;20064;-69
2023/01/02 01:33:33;;;;;;;10.60;3.63;;;;;;;-1.50;73.27;101489.31;5049617;28;20057;-69
2023/01/02 01:36:03;;;;;;;8.57;2.90;;;;;;;-1.48;72.93;101477.41;5048077;28;20131;-69
2023/01/02 01:38:31;;;;;;;8.45;3.05;;;;;;;-1.50;73.04;101466.25;5049447;28;20044;-69
2023/01/02 01:40:59;;;;;;;6.43;2.85;;;;;;;-1.43;72.94;101475.94;5049281;28;20586;-69
2023/01/02 01:43:41;;;;;;;7.40;3.17;;;;;;;-1.41;73.21;101479.44;5049172;28;20051;-69
2023/01/02 01:46:14;;;;;;;5.85;2.17;;;;;;;-1.40;73.25;101466.69;5049146;28;20045;-69
2023/01/02 01:48:41;;;;;;;8.23;2.10;;;;;;;-1.38;73.45;101464.19;5047618;28;20055;-69
2023/01/02 01:51:08;;;;;;;6.80;3.08;;;;;;;-1.36;73.50;101454.88;5044572;28;20041;-69
2023/01/02 01:53:36;;;;;;;4.57;2.30;;;;;;;-1.37;73.47;101448.00;5048854;28;20044;-69
2023/01/02 01:56:08;;;;;;;5.22;1.90;;;;;;;-1.31;73.49;101455.97;5051308;28;20037;-69
2023/01/02 01:58:40;;;;;;;7.95;1.92;;;;;;;-1.32;73.35;101449.06;5049638;28;20061;-69
2023/01/02 02:01:08;;;;;;;4.47;2.00;;;;;;;-1.28;73.41;101450.94;5050512;28;20057;-69
2023/01/02 02:03:37;;;;;;;3.55;1.38;;;;;;;-1.25;73.44;101450.16;5049731;28;20128;-69
2023/01/02 02:06:04;;;;;;;3.90;1.13;;;;;;;-1.24;73.73;101437.44;5049257;28;20575;-69
2023/01/02 02:08:37;;;;;;;2.45;1.02;;;;;;;-1.20;73.23;101441.84;5049342;28;20048;-69
2023/01/02 02:11:06;;;;;;;3.65;1.50;;;;;;;-1.27;74.01;101429.63;5050601;28;20042;-69
2023/01/02 02:13:34;;;;;;;5.25;1.65;;;;;;;-1.17;73.41;101444.56;5050443;28;20055;-69
2023/01/02 02:16:16;;;;;;;4.90;1.73;;;;;;;-1.14;73.35;101444.69;5050278;28;20049;-69
2023/01/02 02:18:59;;;;;;;4.75;1.38;;;;;;;-1.11;73.69;101448.16;5050205;28;20049;-69
2023/01/02 02:21:43;;;;;;;5.30;1.60;;;;;;;-1.08;73.49;101443.16;5050520;28;20041;-69
2023/01/02 02:24:33;;;;;;;5.07;2.17;;;;;;;-1.04;73.41;101429.66;5049470;28;20041;-69
2023/01/02 02:27:12;;;;;;;3.72;1.48;;;;;;;-1.03;73.88;101416.00;5049537;28;20052;-69
2023/01/02 02:30:10;;;;;;;5.25;1.65;;;;;;;-1.00;73.72;101400.75;5050334;28;20049;-69
2023/01/02 02:32:58;;;;;;;5.45;1.52;;;;;;;-0.98;73.92;101394.84;5049876;28;20053;-69
2023/01/02 02:35:37;;;;;;;6.15;1.48;;;;;;;-0.97;73.87;101396.63;5047201;28;20049;-69
2023/01/02 02:38:09;;;;;;;4.38;1.30;;;;;;;-0.93;73.81;101402.75;5049358;28;20055;-69
2023/01/02 02:40:48;;;;;;;3.38;1.35;;;;;;;-0.91;73.37;101412.25;5050456;28;20051;-69
2023/01/02 02:43:23;;;;;;;2.42;1.27;;;;;;;-0.88;73.57;101415.72;5049312;28;20135;-69
2023/01/02 02:46:00;;;;;;;3.13;0.90;;;;;;;-0.86;74.18;101404.72;5049839;28;20056;-69
2023/01/02 02:48:38;;;;;;;5.88;0.88;;;;;;;-0.83;74.28;101403.94;5050503;28;20128;-69
2023/01/02 02:51:10;;;;;;;1.67;0.70;;;;;;;-0.80;73.90;101409.19;5050211;28;20045;-69
2023/01/02 02:53:43;;;;;;;4.53;1.20;;;;;;;-0.77;74.20;101407.66;5049608;28;20132;-69
2023/01/02 02:56:12;;;;;;;4.13;1.25;;;;;;;-0.74;74.28;101410.31;5048630;28;20163;-69
2023/01/02 02:58:42;;;;;;;9.65;1.63;;;;;;;-0.72;74.61;101408.66;5048879;28;20048;-69
2023/01/02 03:01:14;;;;;;;3.40;0.90;;;;;;;-0.69;74.00;101397.66;5048798;28;20137;-69
2023/01/02 03:03:42;;;;;;;4.65;0.88;;;;;;;-0.67;74.04;101380.63;5049417;28;20049;-69
2023/01/02 03:06:22;;;;;;;4.18;1.10;;;;;;;-0.64;73.85;101369.59;5049531;28;20404;-69
2023/01/02 03:09:00;;;;;;;2.65;0.35;;;;;;;-0.62;74.65;101370.53;5053392;28;20049;-69
2023/01/02 03:11:37;;;;;;;4.72;0.60;;;;;;;-0.64;74.90;101367.03;5053219;28;20422;-69
2023/01/02 03:14:09;;;;;;;2.05;0.88;;;;;;;-0.56;74.75;101373.34;5053241;28;20504;-69
2023/01/02 03:16:40;;;;;;;3.45;0.70;;;;;;;-0.56;74.83;101363.06;5053913;28;20045;-69
2023/01/02 03:19:11;;;;;;;1.45;0.45;;;;;;;-0.49;74.50;101373.59;5053428;28;20045;-69
2023/01/02 03:21:41;;;;;;;1.55;0.40;;;;;;;-0.45;74.98;101379.72;5053192;28;20048;-69
2023/01/02 03:24:11;;;;;;;2.95;0.50;;;;;;;-0.43;75.05;101366.94;5053624;28;20045;-69
2023/01/02 03:26:42;;;;;;;1.05;0.30;;;;;;;-0.38;75.45;101370.53;5053072;28;20140;-69
2023/01/02 03:29:15;;;;;;;2.72;0.50;;;;;;;-0.35;75.90;101363.81;5053037;28;20037;-69
2023/01/02 03:31:47;;;;;;;2.25;0.28;;;;;;;-0.33;75.28;101351.91;5051929;28;20131;-69
2023/01/02 03:34:19;;;;;;;3.50;0.20;;;;;;;-0.28;75.46;101339.25;5052972;28;20055;-69
2023/01/02 03:36:51;;;;;;;2.97;0.20;;;;;;;-0.24;76.26;101339.38;5052821;28;20048;-69
2023/01/02 03:39:20;;;;;;;2.88;0.20;;;;;;;-0.20;75.84;101342.06;5053017;28;20055;-69
2023/01/02 03:41:55;;;;;;;4.97;0.98;;;;;;;-0.15;76.02;101345.66;5053235;28;20502;-69
2023/01/02 03:44:25;;;;;;;6.15;0.20;;;;;;;-0.09;76.36;101344.16;5051694;28;20041;-69
2023/01/02 03:47:03;;;;;;;2.40;0.13;;;;;;;-0.05;75.83;101342.59;5051649;28;20055;-69
2023/01/02 03:49:34;;;;;;;4.47;0.30;;;;;;;0.02;76.74;101334.25;5054619;28;20053;-73
2023/01/02 03:52:01;;;;;;;3.15;0.10;;;;;;;0.08;76.29;101331.91;5052513;28;20057;-73
2023/01/02 03:54:29;;;;;;;1.10;0.10;;;;;;;0.16;77.45;101338.16;5053060;28;20051;-68
2023/01/02 03:56:59;;;;;;;1.80;0.20;;;;;;;0.28;78.14;101327.41;5053465;28;20056;-68
2023/01/02 03:59:34;;;;;;;7.22;0.20;;;;;;;0.38;77.47;101319.19;5051200;28;20045;-68
2023/01/02 04:02:07;;;;;;;6.82;0.30;;;;;;;0.49;77.84;101316.09;5051337;28;20093;-68
2023/01/02 04:04:41;;;;;;;3.53;0.20;;;;;;;0.59;78.45;101312.97;5052047;28;20049;-68
2023/01/02 04:07:12;;;;;;;1.85;0.10;;;;;;;0.64;77.92;101309.69;5052405;28;20052;-68
2023/01/02 04:09:40;;;;;;;2.38;0.20;;;;;;;0.76;77.93;101311.75;5052492;28;20049;-68
2023/01/02 04:12:11;;;;;;;5.40;0.35;;;;;;;0.85;78.17;101316.31;5052244;28;20047;-68
2023/01/02 04:14:44;;;;;;;1.83;0.13;;;;;;;0.93;78.31;101307.13;5052324;28;20040;-68
2023/01/02 04:17:16;;;;;;;4.90;0.20;;;;;;;1.02;78.12;101309.97;5052184;28;20049;-68
2023/01/02 04:19:47;;;;;;;3.00;0.10;;;;;;;1.10;77.57;101316.19;5051378;28;20049;-68
2023/01/02 04:22:20;;;;;;;5.03;0.20;;;;;;;1.20;78.17;101324.22;5050807;28;20051;-68
2023/01/02 04:24:54;;;;;;;2.63;0.20;;;;;;;1.24;78.01;101324.31;5051728;28;20495;-69
2023/01/02 04:27:26;;;;;;;1.25;0.08;;;;;;;1.32;77.29;101321.97;5052100;28;20056;-68
2023/01/02 04:29:53;;;;;;;3.88;0.20;;;;;;;1.40;78.37;101324.75;5051909;28;20571;-68
2023/01/02 04:32:26;;;;;;;6.35;0.20;;;;;;;1.47;77.74;101324.09;5052167;28;20041;-69
2023/01/02 04:34:54;;;;;;;3.50;0.57;;;;;;;1.53;77.50;101317.38;5051917;28;20078;-69
2023/01/02 04:37:33;;;;;;;3.08;0.38;;;;;;;1.61;77.72;101327.03;5052511;28;20083;-69
2023/01/02 04:40:04;;;;;;;3.17;0.65;;;;;;;1.65;77.33;101329.75;5051848;28;20120;-68
2023/01/02 04:42:31;;;;;;;1.10;0.00;;;;;;;1.71;77.51;101318.75;5050806;28;20128;-68
2023/01/02 04:44:58;;;;;;;0.40;0.20;;;;;;;1.77;78.09;101313.75;5050997;28;20499;-68
2023/01/02 04:47:26;;;;;;;3.10;0.28;;;;;;;1.83;77.91;101313.03;5051666;28;20055;-68
2023/01/02 04:49:53;;;;;;;1.83;0.20;;;;;;;1.88;77.98;101312.31;5050874;28;20053;-69
2023/01/02 04:52:20;;;;;;;7.38;0.22;;;;;;;1.94;77.82;101311.59;5051279;28;20128;-68
2023/01/02 04:54:46;;;;;;;2.50;0.10;;;;;;;1.96;78.36;101300.50;5051544;28;20052;-69
2023/01/02 04:57:13;;;;;;;6.55;0.20;;;;;;;1.99;77.73;101292.84;5051659;28;20052;-69
2023/01/02 04:59:40;;;;;;;3.60;0.10;;;;;;;2.06;78.36;101277.53;5050425;28;20049;-69
2023/01/02 05:02:07;;;;;;;2.13;0.70;;;;;;;2.07;77.69;101271.53;5051225;28;20434;-68
2023/01/02 05:04:35;;;;;;;3.50;0.20;;;;;;;2.16;78.23;101288.13;5051132;28;20063;-68
2023/01/02 05:07:02;;;;;;;5.25;0.20;;;;;;;2.19;78.45;101289.88;5051785;28;20056;-69
2023/01/02 05:09:29;;;;;;;6.72;0.50;;;;;;;2.24;77.92;101283.97;5051105;28;20053;-68
2023/01/02 05:11:56;;;;;;;3.50;0.10;;;;;;;2.29;78.07;101278.94;5051087;28;20057;-68
2023/01/02 05:14:23;;;;;;;1.00;0.30;;;;;;;2.32;78.31;101268.69;5051145;28;20422;-68
2023/01/02 05:16:50;;;;;;;0.63;0.17;;;;;;;2.36;77.86;101265.38;5050801;28;20053;-69
2023/01/02 05:19:16;;;;;;;4.38;0.10;;;;;;;2.40;78.17;101266.31;5050516;28;20045;-69
2023/01/02 05:24:29;;;;;;;1.35;0.22;;;;;;;2.47;78.00;101245.84;5051362;28;20521;-68
2023/01/02 05:26:56;;;;;;;4.20;0.35;;;;;;;2.52;78.63;101242.50;5051012;28;20871;-68
2023/01/02 05:29:23;;;;;;;4.47;0.20;;;;;;;2.54;78.18;101240.84;5050113;28;20080;-69
2023/01/02 05:31:50;;;;;;;0.90;0.30;;;;;;;2.59;78.65;101239.19;5050235;28;20479;-68
2023/01/02 05:34:17;;;;;;;5.72;0.20;;;;;;;2.62;78.12;101237.59;5051004;28;20048;-68
2023/01/02 05:36:45;;;;;;;3.47;0.20;;;;;;;2.67;78.24;101250.56;5049972;28;20055;-68
2023/01/02 05:39:13;;;;;;;6.18;0.20;;;;;;;2.69;78.35;101238.56;5051139;28;20045;-68
2023/01/02 05:41:40;;;;;;;5.88;0.20;;;;;;;2.73;77.92;101245.53;5050327;28;20162;-68
2023/01/02 05:44:08;;;;;;;4.13;0.30;;;;;;;2.75;78.00;101241.28;5050806;28;20124;-69
2023/01/02 05:46:36;;;;;;;2.33;0.35;;;;;;;2.78;78.65;101238.75;5051072;28;20415;-69
2023/01/02 05:49:04;;;;;;;3.72;0.35;;;;;;;2.81;78.18;101246.56;5051253;28;20049;-69
2023/01/02 05:51:31;;;;;;;2.78;0.20;;;;;;;2.84;78.63;101244.03;5050516;28;20056;-68
2023/01/02 05:54:00;;;;;;;4.25;0.63;;;;;;;2.87;78.56;101249.25;5050507;28;20136;-69
2023/01/02 05:56:28;;;;;;;1.63;0.30;;;;;;;2.86;78.41;101232.06;5050561;28;20555;-69
2023/01/02 05:58:55;;;;;;;1.23;0.20;;;;;;;2.90;78.05;101239.03;5049594;28;20064;-69
2023/01/02 06:01:24;;;;;;;2.03;0.30;;;;;;;2.95;78.33;101239.09;5050584;28;20426;-69
2023/01/02 06:03:53;;;;;;;8.38;0.30;;;;;;;2.86;78.00;101219.16;5050056;28;20067;-69
2023/01/02 06:06:21;;;;;;;1.80;0.40;;;;;;;3.01;78.33;101235.78;5049447;28;20120;-69
2023/01/02 06:08:48;;;;;;;3.38;0.40;;;;;;;3.02;78.68;101227.22;5050341;28;20051;-68
2023/01/02 06:11:16;;;;;;;3.90;0.30;;;;;;;3.05;78.53;101232.44;5050459;28;20506;-69
2023/01/02 06:13:43;;;;;;;2.38;0.30;;;;;;;3.07;78.60;101238.47;5049927;28;20158;-69
2023/01/02 06:16:11;;;;;;;1.25;0.60;;;;;;;3.10;78.66;101246.28;5050860;28;20048;-69
2023/01/02 06:18:39;;;;;;;1.27;0.20;;;;;;;3.12;78.39;101239.44;5050766;28;20045;-68
2023/01/02 06:21:08;;;;;;;0.70;0.10;;;;;;;3.15;78.17;101236.91;5051015;28;20045;-69
2023/01/02 06:23:35;;;;;;;2.90;0.20;;;;;;;3.14;78.65;101236.06;5049284;28;20045;-68
2023/01/02 06:26:04;;;;;;;6.60;0.47;;;;;;;3.19;78.04;101238.72;5050835;28;20045;-69
2023/01/02 06:28:32;;;;;;;0.77;0.15;;;;;;;3.12;78.50;101223.94;5049910;28;20418;-69
2023/01/02 06:31:00;;;;;;;2.25;0.10;;;;;;;3.23;78.30;101225.03;5048551;28;20388;-69
2023/01/02 06:33:28;;;;;;;1.70;0.10;;;;;;;3.22;77.97;101218.13;5049829;28;20491;-68
2023/01/02 06:35:59;;;;;;;1.08;0.10;;;;;;;3.27;78.58;101218.19;5050015;28;20045;-69
2023/01/02 06:38:26;;;;;;;1.95;0.10;;;;;;;3.28;78.11;101215.66;5048286;28;20041;-69
2023/01/02 06:40:54;;;;;;;0.85;0.10;;;;;;;3.30;78.33;101224.31;5050485;28;20063;-69
2023/01/02 06:43:21;;;;;;;3.03;0.20;;;;;;;3.33;77.87;101233.78;5053637;28;20492;-68
2023/01/02 06:45:50;;;;;;;4.30;1.95;;;;;;;3.33;78.39;101226.06;5054183;28;20053;-68
2023/01/02 06:48:17;;;;;;;1.13;0.20;;;;;;;3.35;78.06;101224.38;5054110;28;20037;-69
2023/01/02 06:50:45;;;;;;;3.97;0.20;;;;;;;3.36;77.82;101224.41;5053471;28;20049;-68
2023/01/02 06:53:12;;;;;;;0.73;0.10;;;;;;;3.39;78.41;101228.78;5052740;28;20044;-69
2023/01/02 06:55:39;;;;;;;1.85;0.00;;;;;;;3.41;77.83;101215.88;5053333;28;20063;-69
2023/01/02 06:58:06;;;;;;;1.00;0.03;;;;;;;3.43;78.34;101206.44;5053197;28;20051;-69
2023/01/02 07:00:33;;;;;;;2.25;1.05;;;;;;;3.44;78.12;101205.59;5054435;28;20553;-68
2023/01/02 07:03:01;;;;;;;1.20;0.30;;;;;;;3.44;78.29;101206.47;5052798;28;20044;-69
2023/01/02 07:05:28;;;;;;;2.22;0.10;;;;;;;3.47;78.24;101210.81;5053739;28;20063;-69
2023/01/02 07:07:55;;;;;;;0.20;0.10;;;;;;;3.47;77.91;101214.28;5053805;28;20048;-69
2023/01/02 07:10:22;;;;;;;1.13;0.00;;;;;;;3.49;78.01;101204.84;5053634;28;20057;-69
2023/01/02 07:12:49;;;;;;;1.15;0.10;;;;;;;3.51;78.31;101197.13;5052727;28;20045;-69
2023/01/02 07:15:16;;;;;;;1.70;0.40;;;;;;;3.50;78.09;101201.44;5053554;28;20057;-68
2023/01/02 07:17:43;;;;;;;0.65;0.10;;;;;;;3.54;78.11;101197.19;5053004;28;20855;-69
2023/01/02 07:20:12;;;;;;;0.08;0.08;;;;;;;3.56;78.20;101200.66;5053699;28;20045;-68
2023/01/02 07:22:38;;;;;;;1.95;0.10;;;;;;;3.58;78.36;101198.94;5053749;28;20124;-69
2023/01/02 07:25:06;;;;;;;0.40;0.10;;;;;;;3.59;78.28;101205.88;5052991;28;20136;-68
2023/01/02 07:27:33;;;;;;;1.50;0.10;;;;;;;3.57;78.40;101195.50;5053164;28;20051;-69
2023/01/02 07:30:00;;;;;;;3.17;0.10;;;;;;;3.62;78.29;101194.72;5051937;28;20041;-69
2023/01/02 07:32:27;;;;;;;1.65;0.10;;;;;;;3.59;78.31;101191.25;5053314;28;20045;-69
2023/01/02 07:34:54;;;;;;;0.88;0.08;;;;;;;3.65;78.23;101187.03;5053276;28;20396;-69
2023/01/02 07:37:22;;;;;;;3.10;0.10;;;;;;;3.66;78.62;101178.41;5053611;28;20403;-69
2023/01/02 07:39:49;;;;;;;0.93;0.10;;;;;;;3.68;78.22;101185.34;5052849;28;20132;-69
2023/01/02 07:42:16;;;;;;;1.55;0.00;;;;;;;3.69;78.39;101187.09;5052020;28;20049;-68
2023/01/02 07:44:43;;;;;;;0.10;0.10;;;;;;;3.70;78.09;101170.75;5052640;28;20045;-69
2023/01/02 07:47:10;;;;;;;4.70;0.10;;;;;;;3.72;78.01;101178.50;5053281;28;20071;-69
2023/01/02 07:49:37;;;;;;;1.38;0.10;;;;;;;3.74;78.44;101182.88;5052747;28;20045;-68
2023/01/02 07:52:04;;;;;;;1.75;0.10;;;;;;;3.75;78.36;101196.66;5051877;28;20724;-68
2023/01/02 07:54:32;;;;;;;2.65;0.10;;;;;;;3.77;78.16;101182.06;5052737;28;20518;-69
2023/01/02 07:56:59;;;;;;;1.27;0.10;;;;;;;3.79;78.38;101165.72;5052186;28;20393;-68
2023/01/02 07:59:26;;;;;;;0.28;0.17;;;;;;;3.80;78.60;101190.72;5051717;28;20055;-69
2023/01/02 08:01:53;;;;;;;0.93;0.10;;;;;;;3.83;78.19;101200.22;5052077;28;20049;-69
2023/01/02 08:04:20;;;;;;;2.38;0.10;;;;;;;3.85;78.22;101182.19;5052050;28;20041;-68
2023/01/02 08:06:47;;;;;;;2.53;0.10;;;;;;;3.85;78.50;101179.59;5052978;28;20132;-68
2023/01/02 08:09:14;;;;;;;3.92;0.20;;;;;;;3.87;78.32;101175.28;5052298;28;20047;-69
2023/01/02 08:11:42;;;;;;;1.30;0.30;;;;;;;3.88;78.75;101165.00;5052720;28;20059;-68
2023/01/02 08:14:09;;;;;;;4.00;0.30;;;;;;;3.90;78.48;101162.41;5052061;28;20047;-68
2023/01/02 08:16:36;;;;;;;1.10;0.65;;;;;;;3.92;78.28;101150.41;5052623;28;20132;-69
2023/01/02 08:19:03;;;;;;;1.50;0.30;;;;;;;3.94;78.22;101161.63;5052379;28;20044;-69
2023/01/02 08:21:30;;;;;;;2.75;0.20;;;;;;;3.95;78.66;101158.19;5052029;28;20045;-69
2023/01/02 08:23:57;;;;;;;5.03;0.32;;;;;;;3.96;78.45;101150.47;5052146;28;20142;-69
2023/01/02 08:26:24;;;;;;;5.70;0.52;;;;;;;3.98;78.32;101142.72;5050933;28;20048;-69
2023/01/02 08:28:52;;;;;;;1.90;0.50;;;;;;;4.00;78.54;101143.63;5052089;28;20056;-68
2023/01/02 08:31:21;;;;;;;2.15;0.30;;;;;;;4.02;78.69;101139.34;5051322;28;20055;-69
2023/01/02 08:33:48;;;;;;;4.13;0.38;;;;;;;4.03;78.65;101146.25;5052568;28;20049;-69
2023/01/02 08:36:15;;;;;;;10.23;1.05;;;;;;;4.04;78.41;101148.88;5051659;28;20128;-69
2023/01/02 08:38:42;;;;;;;9.13;1.17;;;;;;;4.05;78.71;101148.00;5051659;28;20045;-68
2023/01/02 08:41:09;;;;;;;3.28;0.35;;;;;;;4.08;78.11;101144.59;5052039;28;20041;-69
2023/01/02 08:43:36;;;;;;;1.35;0.77;;;;;;;4.06;78.71;101148.88;5051286;28;20127;-69
2023/01/02 08:46:06;;;;;;;3.58;1.55;;;;;;;4.10;78.74;101142.91;5051767;28;20052;-69
2023/01/02 08:48:33;;;;;;;6.13;0.60;;;;;;;4.11;78.49;101149.81;5050882;28;20049;-68
2023/01/02 08:51:00;;;;;;;5.78;1.13;;;;;;;4.11;78.72;101152.41;5050892;28;20514;-68
2023/01/02 08:53:27;;;;;;;6.55;1.38;;;;;;;4.15;78.72;101155.91;5052151;28;20049;-69
2023/01/02 08:55:54;;;;;;;8.32;0.73;;;;;;;4.16;78.87;101145.59;5051216;28;20056;-68
2023/01/02 08:58:21;;;;;;;5.43;0.85;;;;;;;4.17;78.67;101143.88;5051045;28;20060;-68
2023/01/02 09:00:48;;;;;;;6.60;0.98;;;;;;;4.19;78.74;101147.34;5051205;28;20059;-69
2023/01/02 09:03:16;;;;;;;5.85;0.70;;;;;;;4.22;78.65;101147.38;5051299;28;20068;-68
2023/01/02 09:05:43;;;;;;;3.53;0.75;;;;;;;4.23;78.86;101143.94;5050790;28;20051;-69
2023/01/02 09:08:10;;;;;;;3.20;0.50;;;;;;;4.25;78.91;101152.59;5051570;28;20043;-68
2023/01/02 09:10:37;;;;;;;2.85;1.52;;;;;;;4.24;78.99;101136.22;5051087;28;20048;-68
2023/01/02 09:13:04;;;;;;;2.75;0.70;;;;;;;4.26;79.15;101129.31;5051078;28;20171;-68
2023/01/02 09:15:31;;;;;;;7.82;0.90;;;;;;;4.29;78.78;101125.91;5050313;28;20504;-69
2023/01/02 09:17:58;;;;;;;6.93;0.63;;;;;;;4.29;78.96;101126.78;5051681;28;20052;-69
2023/01/02 09:20:26;;;;;;;5.30;0.90;;;;;;;4.31;78.82;101129.41;5050558;28;20052;-69
2023/01/02 09:22:53;;;;;;;7.68;2.03;;;;;;;4.33;78.73;101126.84;5051253;28;20049;-68
2023/01/02 09:25:20;;;;;;;5.32;1.52;;;;;;;4.34;78.79;101121.69;5050364;28;20506;-68
2023/01/02 09:27:47;;;;;;;8.50;0.90;;;;;;;4.35;78.80;101113.06;5050002;28;20052;-68
2023/01/02 09:30:14;;;;;;;3.95;0.90;;;;;;;4.37;78.92;101116.53;5050644;28;20045;-69
2023/01/02 09:32:41;;;;;;;7.18;1.42;;;;;;;4.38;78.86;101113.09;5051041;28;20049;-69
2023/01/02 09:35:08;;;;;;;13.30;0.88;;;;;;;4.40;79.15;101102.78;5051047;28;20067;-68
2023/01/02 09:37:37;;;;;;;7.55;0.93;;;;;;;4.41;79.05;101097.63;5051148;28;20044;-68
2023/01/02 09:40:04;;;;;;;5.65;0.85;;;;;;;4.43;78.84;101106.25;5051084;28;20040;-69
2023/01/02 09:42:32;;;;;;;14.07;1.27;;;;;;;4.45;78.94;101098.53;5049294;28;20045;-69
2023/01/02 09:45:02;;;;;;;12.10;1.20;;;;;;;4.46;79.07;101101.13;5050081;28;20056;-68
2023/01/02 09:47:29;;;;;;;10.68;1.15;;;;;;;4.47;79.08;101102.88;5050537;28;20053;-69
2023/01/02 09:50:00;;;;;;;5.30;1.02;;;;;;;4.49;78.86;101103.75;5050025;28;20131;-69
2023/01/02 09:52:32;;;;;;;10.10;1.65;;;;;;;4.50;79.10;101091.69;5049577;28;20168;-68
2023/01/02 09:55:02;;;;;;;16.15;1.58;;;;;;;4.54;78.92;101097.78;5050002;28;20051;-68
2023/01/02 09:57:41;;;;;;;10.20;1.38;;;;;;;4.54;79.12;101085.69;5049347;28;20063;-68
2023/01/02 10:00:16;;;;;;;12.38;1.13;;;;;;;4.56;79.01;101088.31;5050599;28;20545;-69
2023/01/02 10:03:00;;;;;;;12.32;1.45;;;;;;;4.56;79.15;101088.31;5050027;28;20045;-69
2023/01/02 10:05:40;;;;;;;5.63;1.55;;;;;;;4.58;78.83;101084.91;5049848;28;20053;-68
2023/01/02 10:08:14;;;;;;;12.05;1.55;;;;;;;4.60;79.20;101083.16;5050674;28;20045;-69
2023/01/02 10:10:46;;;;;;;15.45;1.63;;;;;;;4.61;79.26;101084.94;5049337;28;20509;-68
2023/01/02 10:13:21;;;;;;;4.07;0.77;;;;;;;4.64;79.18;101090.13;5049921;28;20041;-68
2023/01/02 10:15:51;;;;;;;10.02;1.45;;;;;;;4.63;79.13;101067.69;5050625;28;20041;-69
2023/01/02 10:18:22;;;;;;;10.45;0.98;;;;;;;4.67;79.13;101064.28;5053802;28;20477;-69
2023/01/02 10:20:55;;;;;;;12.05;1.30;;;;;;;4.68;79.10;101055.66;5053939;28;20051;-69
2023/01/02 10:23:27;;;;;;;7.68;0.95;;;;;;;4.70;78.97;101066.91;5053518;28;20051;-68
2023/01/02 10:26:00;;;;;;;7.80;1.27;;;;;;;4.72;79.16;101067.81;5054376;28;20129;-69
2023/01/02 10:28:37;;;;;;;11.75;0.93;;;;;;;4.74;78.94;101071.25;5054214;28;20045;-69
2023/01/02 10:31:09;;;;;;;9.00;1.23;;;;;;;4.74;79.03;101066.06;5054242;28;20045;-68
2023/01/02 10:33:44;;;;;;;13.10;2.38;;;;;;;4.77;79.04;101060.06;5053972;28;20047;-68
2023/01/02 10:36:21;;;;;;;9.95;1.17;;;;;;;4.79;79.11;101063.53;5053809;28;20052;-69
2023/01/02 10:38:48;;;;;;;9.40;1.50;;;;;;;4.77;78.98;101054.88;5054032;28;20141;-69
2023/01/02 10:41:17;;;;;;;12.07;1.08;;;;;;;4.83;79.11;101052.34;5054532;28;20441;-69
2023/01/02 10:43:52;;;;;;;6.40;0.88;;;;;;;4.84;78.83;101048.94;5053086;28;20045;-69
2023/01/02 10:46:19;;;;;;;7.05;1.10;;;;;;;4.86;78.85;101048.94;5053580;28;20048;-69
2023/01/02 10:48:47;;;;;;;19.13;1.85;;;;;;;4.86;78.91;101043.75;5054245;28;20063;-68
2023/01/02 10:51:16;;;;;;;12.98;1.17;;;;;;;4.88;78.84;101042.91;5053088;28;20044;-69
2023/01/02 10:53:43;;;;;;;9.50;1.38;;;;;;;4.89;79.01;101042.03;5053586;28;20040;-69
2023/01/02 10:56:19;;;;;;;14.60;1.20;;;;;;;4.92;78.74;101038.63;5053404;28;20055;-69
2023/01/02 10:58:47;;;;;;;10.88;1.88;;;;;;;4.93;78.90;101037.78;5052039;28;20518;-69
2023/01/02 11:01:17;;;;;;;11.27;1.52;;;;;;;4.94;79.11;101037.78;5054795;28;20055;-69
2023/01/02 11:03:45;;;;;;;18.70;1.60;;;;;;;4.95;79.05;101038.66;5053092;28;20052;-69
2023/01/02 11:06:21;;;;;;;16.33;1.67;;;;;;;4.97;79.00;101037.81;5053283;28;20041;-69
2023/01/02 11:08:57;;;;;;;16.02;2.05;;;;;;;5.00;79.02;101044.75;5053234;28;20045;-69
2023/01/02 11:11:27;;;;;;;12.23;1.48;;;;;;;5.00;78.82;101030.94;5053521;28;20040;-69
2023/01/02 11:13:56;;;;;;;16.95;2.28;;;;;;;5.01;79.02;101028.38;5053413;28;20499;-68
2023/01/02 11:16:25;;;;;;;17.15;2.42;;;;;;;5.03;78.90;101020.59;5053425;28;20057;-69
2023/01/02 11:18:54;;;;;;;16.60;2.60;;;;;;;5.03;79.00;101021.47;5053560;28;20044;-69
2023/01/02 11:21:26;;;;;;;21.13;1.85;;;;;;;5.05;78.93;101019.75;5053224;28;20049;-69
2023/01/02 11:23:59;;;;;;;17.17;2.08;;;;;;;5.06;78.95;101021.47;5054051;28;20104;-69
2023/01/02 11:26:29;;;;;;;14.73;2.15;;;;;;;5.08;78.99;101016.34;5053282;28;20396;-69
2023/01/02 11:29:03;;;;;;;14.63;1.50;;;;;;;5.09;79.01;101016.31;5052759;28;20147;-69
2023/01/02 11:31:30;;;;;;;15.18;1.77;;;;;;;5.10;78.87;101018.09;5052401;28;20059;-69
2023/01/02 11:34:09;;;;;;;17.20;2.42;;;;;;;5.12;79.02;101018.06;5053185;28;20041;-68
2023/01/02 11:36:36;;;;;;;19.20;4.65;;;;;;;5.12;78.80;101006.03;5052107;28;20056;-68
2023/01/02 11:39:21;;;;;;;16.25;1.83;;;;;;;5.15;78.86;101005.16;5052592;28;20052;-69
2023/01/02 11:44:53;;;;;;;6.17;1.67;;;;;;;5.16;78.71;101002.59;5051367;28;20064;-69